createdAt,value
2022-12-28T00:02:22.570Z,96309.97
2022-12-28T00:04:50.434Z,96332.78
2022-12-28T00:07:18.368Z,96340.84
2022-12-28T00:09:47.681Z,96339.41
2022-12-28T00:12:15.527Z,96332.97
2022-12-28T00:14:47.425Z,96337.03
2022-12-28T00:17:24.611Z,96348.84
2022-12-28T00:19:56.749Z,96346.13
2022-12-28T00:22:26.683Z,96292.75
2022-12-28T00:25:08.104Z,96343.97
2022-12-28T00:27:46.796Z,96346.34
2022-12-28T00:30:29.565Z,96326.50
2022-12-28T00:33:04.527Z,96363.13
2022-12-28T00:38:16.145Z,96372.19
2022-12-28T00:40:49.573Z,96372.72
2022-12-28T00:43:20.332Z,96355.41
2022-12-28T00:48:42.995Z,96346.97
2022-12-28T00:51:21.035Z,96367.91
2022-12-28T00:54:06.387Z,96388.03
2022-12-28T00:57:10.065Z,96368.97
2022-12-28T00:59:40.858Z,96374.44
2022-12-28T01:02:26.151Z,96374.19
2022-12-28T01:05:07.820Z,96378.34
2022-12-28T01:07:39.825Z,96386.66
2022-12-28T01:10:14.211Z,96312.53
2022-12-28T01:12:49.121Z,96365.53
2022-12-28T01:15:29.328Z,96379.19
2022-12-28T01:17:58.789Z,96374.91
2022-12-28T01:20:27.066Z,96361.09
2022-12-28T01:22:54.938Z,96374.47
2022-12-28T01:25:22.798Z,96375.03
2022-12-28T01:27:52.102Z,96358.97
2022-12-28T01:30:24.793Z,96372.34
2022-12-28T01:32:52.922Z,96375.03
2022-12-28T01:36:14.533Z,96368.69
2022-12-28T01:39:23.489Z,96350.66
2022-12-28T01:41:55.569Z,96161.19
2022-12-28T01:44:57.385Z,96353.34
2022-12-28T01:47:33.712Z,96324.13
2022-12-28T01:50:16.837Z,96360.19
2022-12-28T01:53:12.735Z,96356.75
2022-12-28T01:56:13.549Z,96355.38
2022-12-28T01:59:23.542Z,96344.03
2022-12-28T02:01:54.877Z,96359.81
2022-12-28T02:04:28.283Z,96339.81
2022-12-28T02:06:58.307Z,96325.63
2022-12-28T02:09:36.305Z,96344.34
2022-12-28T02:12:07.945Z,96343.25
2022-12-28T02:14:42.340Z,96337.09
2022-12-28T02:17:13.587Z,96340.06
2022-12-28T02:19:57.886Z,96340.59
2022-12-28T02:22:57.624Z,96337.91
2022-12-28T02:25:58.003Z,96069.91
2022-12-28T02:29:00.031Z,96308.53
2022-12-28T02:31:37.120Z,96328.53
2022-12-28T02:34:18.383Z,96308.47
2022-12-28T02:36:57.202Z,96316.03
2022-12-28T02:39:44.175Z,96320.47
2022-12-28T02:42:14.179Z,96197.69
2022-12-28T02:45:00.562Z,96320.84
2022-12-28T02:47:45.867Z,96328.31
2022-12-28T02:50:17.216Z,96321.69
2022-12-28T02:56:38.615Z,96334.28
2022-12-28T03:02:54.386Z,96310.25
2022-12-28T03:05:53.916Z,96328.63
2022-12-28T03:08:43.638Z,96327.25
2022-12-28T03:11:25.739Z,96320.31
2022-12-28T03:13:58.900Z,96333.09
2022-12-28T03:16:59.882Z,96331.00
2022-12-28T03:20:34.760Z,96263.50
2022-12-28T03:23:25.813Z,96332.94
2022-12-28T03:26:40.385Z,96319.16
2022-12-28T03:40:16.604Z,96333.88
2022-12-28T03:43:33.704Z,96332.03
2022-12-28T03:46:33.166Z,96337.97
2022-12-28T03:49:29.177Z,96333.75
2022-12-28T03:55:17.189Z,96300.41
2022-12-28T03:58:47.463Z,95969.66
2022-12-28T04:04:43.767Z,96313.38
2022-12-28T04:08:03.445Z,96316.31
2022-12-28T04:10:51.812Z,96323.00
2022-12-28T04:17:25.693Z,96240.84
2022-12-28T04:20:50.379Z,95961.75
2022-12-28T04:23:19.708Z,96318.66
2022-12-28T04:25:58.536Z,96306.91
2022-12-28T04:28:30.205Z,96336.28
2022-12-28T04:31:02.489Z,96362.00
2022-12-28T04:33:49.350Z,96361.50
2022-12-28T04:36:26.032Z,96367.38
2022-12-28T04:38:56.274Z,96358.00
2022-12-28T04:41:25.697Z,96364.16
2022-12-28T04:43:55.475Z,96351.31
2022-12-28T04:46:24.067Z,96356.88
2022-12-28T04:48:52.950Z,96358.25
2022-12-28T04:54:05.912Z,96371.69
2022-12-28T04:56:35.289Z,96331.16
2022-12-28T04:59:10.356Z,96363.97
2022-12-28T05:01:46.397Z,96370.91
2022-12-28T05:04:16.239Z,96372.56
2022-12-28T05:13:56.086Z,96360.97
2022-12-28T05:17:00.449Z,96342.31
2022-12-28T05:19:35.431Z,96345.44
2022-12-28T05:29:11.013Z,96277.75
2022-12-28T05:31:51.103Z,96351.09
2022-12-28T05:34:38.726Z,96263.44
2022-12-28T05:37:21.935Z,96361.34
2022-12-28T05:47:10.341Z,96383.69
2022-12-28T05:50:02.233Z,96380.56
2022-12-28T05:52:54.485Z,96359.53
2022-12-28T05:55:23.635Z,96389.34
2022-12-28T05:57:51.531Z,96381.56
2022-12-28T06:00:30.713Z,96384.53
2022-12-28T06:03:06.740Z,96361.78
2022-12-28T06:05:58.084Z,96391.28
2022-12-28T06:08:25.973Z,96383.75
2022-12-28T06:10:54.887Z,96390.75
2022-12-28T06:16:59.958Z,96406.00
2022-12-28T06:19:28.691Z,96399.84
2022-12-28T06:21:59.903Z,96381.19
2022-12-28T06:24:33.217Z,96375.91
2022-12-28T06:27:03.272Z,96402.53
2022-12-28T06:29:32.071Z,96403.91
2022-12-28T06:32:07.317Z,96337.69
2022-12-28T06:34:37.102Z,96391.78
2022-12-28T06:40:03.295Z,96401.31
2022-12-28T06:42:31.110Z,96398.34
2022-12-28T06:45:01.126Z,96409.31
2022-12-28T06:47:37.978Z,96424.94
2022-12-28T06:50:23.406Z,96408.56
2022-12-28T06:52:57.933Z,96413.56
2022-12-28T06:55:25.863Z,96399.94
2022-12-28T06:57:54.936Z,96418.03
2022-12-28T07:00:22.877Z,96408.94
2022-12-28T07:02:50.760Z,96423.97
2022-12-28T07:05:18.670Z,96416.91
2022-12-28T07:07:46.752Z,96420.69
2022-12-28T07:10:16.115Z,96397.94
2022-12-28T07:12:53.464Z,96274.31
2022-12-28T07:15:39.897Z,96394.59
2022-12-28T07:18:20.737Z,96420.94
2022-12-28T07:20:55.633Z,96414.22
2022-12-28T07:23:30.265Z,96401.50
2022-12-28T07:26:09.894Z,96284.63
2022-12-28T07:28:43.449Z,96430.31
2022-12-28T07:31:14.771Z,96416.59
2022-12-28T07:33:42.768Z,96431.28
2022-12-28T07:36:13.826Z,96426.69
2022-12-28T07:38:44.908Z,96427.91
2022-12-28T07:41:16.257Z,96415.00
2022-12-28T07:43:44.605Z,96418.69
2022-12-28T07:46:17.447Z,96374.91
2022-12-28T07:48:58.434Z,96397.50
2022-12-28T07:51:28.475Z,96445.00
2022-12-28T07:54:00.500Z,96403.00
2022-12-28T07:59:07.362Z,96427.50
2022-12-28T08:01:40.939Z,96431.25
2022-12-28T08:04:11.493Z,96436.63
2022-12-28T08:06:40.997Z,96426.97
2022-12-28T08:09:21.512Z,96439.56
2022-12-28T08:11:53.576Z,96430.75
2022-12-28T08:14:38.324Z,96438.75
2022-12-28T08:17:07.344Z,96427.31
2022-12-28T08:19:35.454Z,96431.19
2022-12-28T08:22:03.412Z,96435.59
2022-12-28T08:24:31.679Z,96435.81
2022-12-28T08:27:00.920Z,96442.09
2022-12-28T08:29:28.818Z,96453.19
2022-12-28T08:31:56.627Z,96449.75
2022-12-28T08:34:27.227Z,96437.44
2022-12-28T08:36:58.963Z,96392.28
2022-12-28T08:39:29.266Z,96443.03
2022-12-28T08:41:59.883Z,96444.94
2022-12-28T08:44:29.404Z,96446.31
2022-12-28T08:46:58.215Z,96444.84
2022-12-28T08:49:26.077Z,96444.63
2022-12-28T08:51:58.633Z,96432.56
2022-12-28T08:54:26.652Z,96447.00
2022-12-28T08:56:57.269Z,96429.53
2022-12-28T08:59:26.593Z,96440.94
2022-12-28T09:01:56.135Z,96435.72
2022-12-28T09:04:24.335Z,96425.94
2022-12-28T09:06:54.941Z,96428.16
2022-12-28T09:09:22.778Z,96422.38
2022-12-28T09:11:51.486Z,96412.38
2022-12-28T09:14:24.171Z,96423.81
2022-12-28T09:16:53.422Z,96409.88
2022-12-28T09:19:23.068Z,96409.63
2022-12-28T09:21:53.184Z,96404.50
2022-12-28T09:24:21.937Z,96399.34
2022-12-28T09:26:52.697Z,96399.13
2022-12-28T09:29:21.359Z,96397.94
2022-12-28T09:31:49.216Z,96407.34
2022-12-28T09:34:36.209Z,96397.19
2022-12-28T09:37:07.034Z,96379.56
2022-12-28T09:39:34.997Z,96392.22
2022-12-28T09:42:07.452Z,96395.69
2022-12-28T09:44:58.065Z,96382.69
2022-12-28T09:47:31.928Z,96372.41
2022-12-28T09:50:08.535Z,96383.03
2022-12-28T09:52:49.803Z,96378.72
2022-12-28T09:55:20.220Z,96375.72
2022-12-28T09:57:51.071Z,96392.50
2022-12-28T10:00:21.416Z,96339.06
2022-12-28T10:02:53.032Z,96360.50
2022-12-28T10:05:22.285Z,96360.38
2022-12-28T10:07:53.978Z,96362.00
2022-12-28T10:10:24.539Z,96360.69
2022-12-28T10:12:53.221Z,96361.53
2022-12-28T10:15:26.356Z,96351.72
2022-12-28T10:17:54.288Z,96341.22
2022-12-28T10:20:23.526Z,96354.44
2022-12-28T10:22:56.985Z,96352.50
2022-12-28T10:25:26.760Z,96346.38
2022-12-28T10:27:55.958Z,96341.97
2022-12-28T10:30:27.082Z,96338.59
2022-12-28T10:33:02.130Z,96296.66
2022-12-28T10:35:36.210Z,96338.28
2022-12-28T10:38:09.145Z,96337.75
2022-12-28T10:40:40.007Z,96340.22
2022-12-28T10:43:11.042Z,96342.16
2022-12-28T10:45:42.030Z,96337.81
2022-12-28T10:48:15.184Z,96180.13
2022-12-28T10:50:51.776Z,96323.41
2022-12-28T10:53:26.687Z,96326.34
2022-12-28T10:56:07.235Z,96313.63
2022-12-28T10:58:36.042Z,96328.72
2022-12-28T11:01:08.320Z,96297.22
2022-12-28T11:03:38.488Z,96324.25
2022-12-28T11:06:11.412Z,96339.09
2022-12-28T11:08:41.996Z,96340.81
2022-12-28T11:11:19.355Z,96342.84
2022-12-28T11:13:51.412Z,96335.38
2022-12-28T11:16:19.383Z,96343.56
2022-12-28T11:18:47.286Z,96282.59
2022-12-28T11:21:20.915Z,96313.69
2022-12-28T11:23:51.865Z,96286.81
2022-12-28T11:26:22.394Z,96278.56
2022-12-28T11:28:52.948Z,96351.00
2022-12-28T11:31:26.139Z,96349.69
2022-12-28T11:33:58.538Z,96286.09
2022-12-28T11:36:28.745Z,96349.19
2022-12-28T11:38:58.600Z,96348.69
2022-12-28T11:41:56.321Z,96345.78
2022-12-28T11:44:54.213Z,96347.63
2022-12-28T11:47:32.832Z,96348.31
2022-12-28T11:50:39.365Z,96339.97
2022-12-28T11:53:22.791Z,96338.06
2022-12-28T11:56:05.072Z,96333.53
2022-12-28T11:58:45.133Z,96332.22
2022-12-28T12:01:46.528Z,96326.44
2022-12-28T12:04:42.431Z,96332.63
2022-12-28T12:07:45.824Z,96312.41
2022-12-28T12:10:30.873Z,96309.19
2022-12-28T12:13:00.488Z,96291.09
2022-12-28T12:15:41.628Z,96244.56
2022-12-28T12:18:19.966Z,96305.69
2022-12-28T12:20:55.529Z,96296.97
2022-12-28T12:23:30.442Z,96295.59
2022-12-28T12:26:01.995Z,96272.72
2022-12-28T12:28:41.966Z,96288.78
2022-12-28T12:31:15.497Z,96284.66
2022-12-28T12:33:46.953Z,96286.09
2022-12-28T12:36:33.007Z,96278.63
2022-12-28T12:39:25.860Z,96283.13
2022-12-28T12:42:04.312Z,96284.78
2022-12-28T12:44:41.533Z,96279.47
2022-12-28T12:47:35.370Z,96278.78
2022-12-28T12:50:21.470Z,96278.03
2022-12-28T12:52:56.354Z,96281.16
2022-12-28T12:55:40.596Z,96156.03
2022-12-28T12:58:20.587Z,96280.59
2022-12-28T13:01:04.116Z,96277.66
2022-12-28T13:03:42.133Z,96276.75
2022-12-28T13:06:14.324Z,96227.00
2022-12-28T13:08:48.915Z,96265.91
2022-12-28T13:11:19.403Z,96274.16
2022-12-28T13:13:49.420Z,96264.38
2022-12-28T13:16:21.694Z,96267.56
2022-12-28T13:18:57.870Z,96259.81
2022-12-28T13:21:27.574Z,96249.19
2022-12-28T13:23:55.780Z,96228.63
2022-12-28T13:26:28.432Z,96186.44
2022-12-28T13:29:00.038Z,96258.13
2022-12-28T13:31:35.118Z,96219.03
2022-12-28T13:34:05.606Z,96248.41
2022-12-28T13:36:33.714Z,96252.84
2022-12-28T13:39:05.103Z,96254.44
2022-12-28T13:41:35.860Z,96224.22
2022-12-28T13:44:39.429Z,96244.34
2022-12-28T13:47:15.940Z,96242.91
2022-12-28T13:49:49.504Z,96260.88
2022-12-28T13:52:21.928Z,96258.19
2022-12-28T13:54:55.284Z,96256.31
2022-12-28T14:00:13.100Z,96243.78
2022-12-28T14:02:42.948Z,96253.41
2022-12-28T14:05:18.598Z,96248.69
2022-12-28T14:07:48.216Z,96229.53
2022-12-28T14:10:16.726Z,96249.78
2022-12-28T14:12:45.758Z,96182.34
2022-12-28T14:15:14.883Z,96213.06
2022-12-28T14:17:46.710Z,96236.66
2022-12-28T14:20:15.243Z,96245.50
2022-12-28T14:22:43.452Z,96245.72
2022-12-28T14:25:13.299Z,96233.16
2022-12-28T14:27:43.551Z,96251.53
2022-12-28T14:30:23.548Z,96243.75
2022-12-28T14:32:53.902Z,96198.88
2022-12-28T14:35:25.905Z,96252.97
2022-12-28T14:37:56.379Z,96262.38
2022-12-28T14:40:35.112Z,96239.81
2022-12-28T14:43:08.873Z,96261.88
2022-12-28T14:48:37.314Z,96195.31
2022-12-28T14:51:07.670Z,96238.94
2022-12-28T14:53:35.840Z,96272.94
2022-12-28T14:56:07.679Z,96230.41
2022-12-28T14:58:51.014Z,96265.94
2022-12-28T15:01:20.996Z,96212.34
2022-12-28T15:03:52.965Z,96272.91
2022-12-28T15:06:20.976Z,96265.72
2022-12-28T15:08:50.117Z,96265.03
2022-12-28T15:11:18.878Z,96259.47
2022-12-28T15:13:47.028Z,96265.69
2022-12-28T15:16:17.769Z,96236.09
2022-12-28T15:18:46.145Z,96265.97
2022-12-28T15:21:17.837Z,96266.91
2022-12-28T15:23:49.191Z,96207.72
2022-12-28T15:26:17.075Z,96252.72
2022-12-28T15:28:44.951Z,96256.19
2022-12-28T15:31:15.485Z,96239.69
2022-12-28T15:33:43.471Z,96259.22
2022-12-28T15:36:17.281Z,96252.84
2022-12-28T15:38:47.831Z,96252.53
2022-12-28T15:41:33.782Z,96261.91
2022-12-28T15:44:01.674Z,96261.78
2022-12-28T15:46:29.608Z,96271.78
2022-12-28T15:48:57.553Z,96263.34
2022-12-28T15:51:25.729Z,96266.19
2022-12-28T15:53:54.956Z,96263.28
2022-12-28T15:56:24.958Z,96266.75
2022-12-28T15:58:54.396Z,96260.38
2022-12-28T16:01:23.054Z,96267.69
2022-12-28T16:03:51.124Z,96258.56
2022-12-28T16:06:19.173Z,96267.63
2022-12-28T16:08:47.194Z,96258.47
2022-12-28T16:11:18.003Z,96228.19
2022-12-28T16:13:51.884Z,96233.09
2022-12-28T16:16:19.876Z,96267.22
2022-12-28T16:18:48.203Z,96278.47
2022-12-28T16:21:16.277Z,96262.44
2022-12-28T16:23:45.564Z,96260.94
2022-12-28T16:26:14.608Z,96265.03
2022-12-28T16:28:43.991Z,96258.41
2022-12-28T16:31:22.837Z,96266.97
2022-12-28T16:33:54.092Z,96214.22
2022-12-28T16:36:22.405Z,96263.00
2022-12-28T16:38:50.357Z,96271.78
2022-12-28T16:41:19.170Z,96280.31
2022-12-28T16:43:49.489Z,96284.09
2022-12-28T16:46:18.149Z,96284.06
2022-12-28T16:48:48.555Z,96279.25
2022-12-28T16:51:16.479Z,96285.13
2022-12-28T16:53:44.350Z,96302.28
2022-12-28T16:56:12.450Z,96301.13
2022-12-28T16:58:43.138Z,96273.59
2022-12-28T17:01:14.359Z,96292.19
2022-12-28T17:03:42.292Z,96277.59
2022-12-28T17:06:10.243Z,96301.34
2022-12-28T17:08:38.111Z,96293.13
2022-12-28T17:11:09.287Z,96286.28
2022-12-28T17:13:37.600Z,96294.50
2022-12-28T17:16:06.057Z,96295.06
2022-12-28T17:18:35.894Z,96283.34
2022-12-28T17:21:07.022Z,96284.25
2022-12-28T17:23:35.204Z,96297.53
2022-12-28T17:26:03.041Z,96310.59
2022-12-28T17:28:30.898Z,96306.50
2022-12-28T17:31:06.064Z,96261.13
2022-12-28T17:33:39.757Z,96304.53
2022-12-28T17:36:09.104Z,96299.50
2022-12-28T17:38:37.015Z,96297.22
2022-12-28T17:41:08.848Z,96244.75
2022-12-28T17:43:36.979Z,96257.53
2022-12-28T17:46:05.505Z,96294.69
2022-12-28T17:48:33.426Z,96284.88
2022-12-28T17:51:10.880Z,96279.00
2022-12-28T17:53:39.860Z,96287.38
2022-12-28T17:56:10.095Z,96294.72
2022-12-28T17:58:38.030Z,96288.66
2022-12-28T18:01:07.058Z,96299.38
2022-12-28T18:03:35.544Z,96299.69
2022-12-28T18:06:06.333Z,96303.41
2022-12-28T18:08:34.241Z,96300.22
2022-12-28T18:11:02.303Z,96299.97
2022-12-28T18:13:30.461Z,96312.22
2022-12-28T18:15:58.452Z,96308.22
2022-12-28T18:18:26.331Z,96310.38
2022-12-28T18:20:58.229Z,96317.44
2022-12-28T18:23:28.801Z,96308.78
2022-12-28T18:26:02.623Z,96309.28
2022-12-28T18:28:30.533Z,96293.38
2022-12-28T18:31:02.154Z,96297.59
2022-12-28T18:33:30.929Z,96296.78
2022-12-28T18:35:59.507Z,96292.34
2022-12-28T18:38:28.906Z,96300.56
2022-12-28T18:40:58.572Z,96262.47
2022-12-28T18:43:26.932Z,96304.09
2022-12-28T18:45:55.796Z,96263.53
2022-12-28T18:48:24.578Z,96297.41
2022-12-28T18:50:56.539Z,96308.44
2022-12-28T18:53:25.224Z,96302.00
2022-12-28T18:56:02.496Z,96318.03
2022-12-28T18:58:32.304Z,96320.44
2022-12-28T19:01:03.447Z,96321.22
2022-12-28T19:03:31.582Z,96322.88
2022-12-28T19:06:02.952Z,96321.81
2022-12-28T19:08:32.230Z,96331.97
2022-12-28T19:11:02.163Z,96328.53
2022-12-28T19:13:34.287Z,96330.38
2022-12-28T19:16:02.344Z,96274.84
2022-12-28T19:18:30.352Z,96304.19
2022-12-28T19:20:58.810Z,96330.88
2022-12-28T19:23:27.189Z,96321.47
2022-12-28T19:25:59.520Z,96319.31
2022-12-28T19:28:28.853Z,96318.00
2022-12-28T19:31:01.149Z,96316.41
2022-12-28T19:33:30.685Z,96313.22
2022-12-28T19:35:58.529Z,96306.59
2022-12-28T19:38:26.409Z,96319.47
2022-12-28T19:40:55.330Z,96306.94
2022-12-28T19:43:23.445Z,96313.59
2022-12-28T19:45:52.685Z,96313.56
2022-12-28T19:48:20.575Z,96319.47
2022-12-28T19:50:48.378Z,96315.47
2022-12-28T19:53:16.432Z,96319.19
2022-12-28T19:55:44.284Z,96322.41
2022-12-28T19:58:12.210Z,96329.38
2022-12-28T20:00:40.048Z,96321.84
2022-12-28T20:03:09.337Z,96335.25
2022-12-28T20:05:37.458Z,96302.13
2022-12-28T20:08:05.653Z,96326.69
2022-12-28T20:10:33.527Z,96330.44
2022-12-28T20:13:01.583Z,96316.00
2022-12-28T20:15:29.445Z,96322.97
2022-12-28T20:17:57.312Z,96323.50
2022-12-28T20:20:28.670Z,96320.34
2022-12-28T20:22:58.447Z,96327.03
2022-12-28T20:25:26.327Z,96313.97
2022-12-28T20:27:54.164Z,96268.59
2022-12-28T20:30:22.029Z,96314.22
2022-12-28T20:32:49.899Z,96313.97
2022-12-28T20:35:17.984Z,96327.34
2022-12-28T20:37:47.215Z,96328.69
2022-12-28T20:40:15.110Z,96327.06
2022-12-28T20:43:05.429Z,96323.34
2022-12-28T20:45:34.796Z,96319.88
2022-12-28T20:48:02.807Z,96317.72
2022-12-28T20:50:30.618Z,96319.06
2022-12-28T20:52:59.817Z,96320.97
2022-12-28T20:55:27.708Z,96287.88
2022-12-28T20:57:55.562Z,96323.09
2022-12-28T21:00:23.527Z,96322.34
2022-12-28T21:02:51.339Z,96309.72
2022-12-28T21:05:19.270Z,96319.94
2022-12-28T21:07:47.260Z,96319.97
2022-12-28T21:10:16.693Z,96300.19
2022-12-28T21:12:44.586Z,96296.75
2022-12-28T21:15:12.686Z,96303.16
2022-12-28T21:17:40.543Z,96285.56
2022-12-28T21:20:10.162Z,96298.94
2022-12-28T21:22:38.106Z,96303.22
2022-12-28T21:25:06.964Z,96266.66
2022-12-28T21:27:36.187Z,96298.69
2022-12-28T21:30:04.173Z,96249.31
2022-12-28T21:32:32.273Z,96317.13
2022-12-28T21:35:00.142Z,96308.59
2022-12-28T21:37:36.982Z,96315.50
2022-12-28T21:40:07.522Z,96324.63
2022-12-28T21:42:37.454Z,96318.47
2022-12-28T21:45:06.076Z,96314.47
2022-12-28T21:47:35.678Z,96321.41
2022-12-28T21:50:05.294Z,96328.09
2022-12-28T21:52:34.429Z,96314.75
2022-12-28T21:55:22.371Z,96329.69
2022-12-28T21:57:52.658Z,96323.28
2022-12-28T22:00:38.791Z,96325.44
2022-12-28T22:03:24.438Z,96315.25
2022-12-28T22:06:04.595Z,96336.94
2022-12-28T22:08:50.637Z,96328.38
2022-12-28T22:11:36.365Z,96324.91
2022-12-28T22:14:06.308Z,96327.56
2022-12-28T22:16:34.688Z,96329.97
2022-12-28T22:19:05.399Z,96322.22
2022-12-28T22:21:33.239Z,96322.22
2022-12-28T22:24:01.053Z,96323.03
2022-12-28T22:26:28.936Z,96325.44
2022-12-28T22:28:57.019Z,96311.25
2022-12-28T22:31:26.309Z,96320.91
2022-12-28T22:33:55.996Z,96316.88
2022-12-28T22:36:23.841Z,96311.53
2022-12-28T22:38:54.408Z,96312.59
2022-12-28T22:41:22.328Z,96304.59
2022-12-28T22:43:51.321Z,96306.44
2022-12-28T22:46:19.638Z,96311.00
2022-12-28T22:48:49.543Z,96309.13
2022-12-28T22:51:18.132Z,96306.19
2022-12-28T22:53:46.049Z,96307.00
2022-12-28T22:56:19.646Z,96298.47
2022-12-28T22:58:47.646Z,96303.81
2022-12-28T23:01:17.334Z,96301.38
2022-12-28T23:03:48.940Z,96282.16
2022-12-28T23:06:19.635Z,96289.63
2022-12-28T23:08:48.005Z,96293.91
2022-12-28T23:11:35.886Z,96296.03
2022-12-28T23:14:19.472Z,96293.38
2022-12-28T23:16:47.635Z,96301.38
2022-12-28T23:19:34.544Z,96301.38
2022-12-28T23:22:19.870Z,96297.66
2022-12-28T23:25:05.204Z,96286.44
2022-12-28T23:27:36.357Z,96281.09
2022-12-28T23:30:06.159Z,96287.78
2022-12-28T23:32:34.236Z,96216.53
2022-12-28T23:35:04.130Z,96285.13
2022-12-28T23:37:32.242Z,96288.06
2022-12-28T23:40:00.801Z,96281.91
2022-12-28T23:42:29.156Z,96277.63
2022-12-28T23:44:57.012Z,96275.75
2022-12-28T23:47:24.932Z,96269.38
2022-12-28T23:49:52.749Z,96263.22
2022-12-28T23:52:25.792Z,96272.56
2022-12-28T23:54:54.128Z,96261.88
2022-12-28T23:57:22.891Z,96271.47
2022-12-28T23:59:50.978Z,96258.41
